This is the latest recevied weather packets stored in our database for station/object KM4CNW. If no packets are shown the sender has not sent any weather packets the latest 1 day(s).
| Time | Temp. | Humidity | Pressure | Rain* | Wind** | Luminosity | Snow |
|---|---|---|---|---|---|---|---|
| 1777986432 | 18.33° C | 65% | 1010.8 hPa | 0 mm | 0.45 m/s, 202° | 38 W/m² | - |
| 1777986131 | 17.78° C | 66% | 1010.7 hPa | 0 mm | 0.89 m/s, 166° | 38 W/m² | - |
| 1777985827 | 17.78° C | 67% | 1010.8 hPa | 0 mm | 0.89 m/s, 151° | 36 W/m² | - |
| 1777985524 | 17.78° C | 67% | 1010.9 hPa | 0 mm | 0.89 m/s, 78° | 37 W/m² | - |
| 1777985220 | 17.22° C | 68% | 1010.8 hPa | 0 mm | 1.79 m/s, 111° | 42 W/m² | - |
| 1777984917 | 17.22° C | 67% | 1010.6 hPa | 0 mm | 0.89 m/s, 258° | 41 W/m² | - |
| 1777984613 | 17.22° C | 68% | 1010.8 hPa | 0 mm | 1.79 m/s, 82° | 37 W/m² | - |
| 1777984310 | 16.67° C | 69% | 1010.7 hPa | 0 mm | 0 m/s | 111 W/m² | - |
| 1777984007 | 16.67° C | 70% | 1010.4 hPa | 0 mm | 0.89 m/s, 321° | 42 W/m² | - |
| 1777983704 | 16.67° C | 70% | 1010.6 hPa | 0 mm | 0.45 m/s, 244° | 31 W/m² | - |
| 1777983401 | 16.11° C | 72% | 1010.7 hPa | 0 mm | 0.89 m/s, 264° | 33 W/m² | - |
| 1777983097 | 16.11° C | 71% | 1010.7 hPa | 0 mm | 0.45 m/s, 235° | 29 W/m² | - |
| 1777982793 | 15.56° C | 72% | 1010.6 hPa | 0 mm | 0.45 m/s, 64° | 29 W/m² | - |
| 1777982489 | 15.56° C | 72% | 1010.6 hPa | 0 mm | 0 m/s | 27 W/m² | - |
| 1777982184 | 15° C | 73% | 1010.4 hPa | 0 mm | 0 m/s | 27 W/m² | - |
| 1777981881 | 15° C | 75% | 1010.6 hPa | 0 mm | 0.45 m/s, 209° | 26 W/m² | - |
| 1777981578 | 14.44° C | 76% | 1010.4 hPa | 0 mm | 0.45 m/s, 251° | 25 W/m² | - |
| 1777981275 | 13.89° C | 77% | 1010.2 hPa | 0 mm | 0 m/s | 24 W/m² | - |
| 1777980971 | 13.89° C | 77% | 1010.3 hPa | 0 mm | 1.34 m/s, 305° | 23 W/m² | - |
| 1777980668 | 13.33° C | 78% | 1010.5 hPa | 0 mm | 0.45 m/s, 255° | 22 W/m² | - |
| 1777980364 | 12.78° C | 80% | 1010.2 hPa | 0 mm | 0.45 m/s, 254° | 19 W/m² | - |
| 1777980062 | 12.22° C | 83% | 1010.4 hPa | 0 mm | 0 m/s | 16 W/m² | - |
| 1777979756 | 11.11° C | 86% | 1010.2 hPa | 0 mm | 0 m/s | 16 W/m² | - |
| 1777979452 | 10° C | 88% | 1010.4 hPa | 0 mm | 0 m/s | 16 W/m² | - |
| 1777979149 | 9.44° C | 89% | 1010.2 hPa | 0 mm | 0 m/s | 14 W/m² | - |
* Rain latest hour (hover to see other rain measurements)
** Current wind speed in m/s (hover to see current wind gust speed)